Time;durP1;ratioP1;P1;durP2;ratioP2;P2;SDS_P1;SDS_P2;PMS_P1;PMS_P2;Temp;Humidity;BMP_temperature;BMP_pressure;BME280_temperature;BME280_humidity;BME280_pressure;Samples;Min_cycle;Max_cycle;Signal;HPM_P1;HPM_P2
2022/03/18 00:01:03;;;;;;;2.90;2.37;;;8.50;99.90;7.80;99869.00;;;;5115534;28;20280;-70
2022/03/18 00:03:30;;;;;;;1.50;1.50;;;8.50;99.90;7.70;99873.00;;;;5115555;28;20280;-70
2022/03/18 00:05:57;;;;;;;1.37;1.00;;;8.50;99.90;7.70;99862.00;;;;5115392;28;20229;-70
2022/03/18 00:08:23;;;;;;;2.17;2.07;;;8.40;99.90;7.70;99871.00;;;;5115472;28;20186;-70
2022/03/18 00:10:50;;;;;;;1.63;1.63;;;8.40;99.90;7.70;99860.00;;;;5115425;28;20278;-70
2022/03/18 00:13:16;;;;;;;1.97;1.87;;;8.40;99.90;7.80;99867.00;;;;5115427;28;20248;-70
2022/03/18 00:15:43;;;;;;;1.97;1.87;;;8.40;99.90;8.00;99861.00;;;;5115454;28;20194;-70
2022/03/18 00:18:09;;;;;;;1.70;1.60;;;8.50;99.90;7.90;99865.00;;;;5115569;28;20213;-70
2022/03/18 00:20:37;;;;;;;1.83;1.47;;;8.50;99.90;7.80;99869.00;;;;5115272;28;20278;-72
2022/03/18 00:23:03;;;;;;;4.20;2.17;;;8.50;99.90;7.90;99871.00;;;;5115236;28;20225;-70
2022/03/18 00:25:32;;;;;;;2.77;2.00;;;8.50;99.90;7.90;99868.00;;;;5114978;28;20278;-70
2022/03/18 00:27:59;;;;;;;1.00;1.00;;;8.50;99.90;7.80;99863.00;;;;5115171;28;20216;-71
2022/03/18 00:30:25;;;;;;;2.40;2.30;;;8.40;99.90;7.80;99871.00;;;;5115236;28;20330;-70
2022/03/18 00:32:53;;;;;;;1.60;1.60;;;8.50;99.90;7.80;99864.00;;;;5114972;28;20278;-72
2022/03/18 00:35:19;;;;;;;2.13;2.03;;;8.50;99.90;7.80;99867.00;;;;5097282;28;20693;-71
2022/03/18 00:37:47;;;;;;;2.03;1.77;;;8.50;99.90;7.80;99863.00;;;;5115243;28;20209;-71
2022/03/18 00:40:14;;;;;;;1.67;1.57;;;8.50;99.90;7.80;99862.00;;;;5115030;28;20347;-70
2022/03/18 00:42:40;;;;;;;1.63;1.53;;;8.40;99.90;7.80;99866.00;;;;5115070;28;20276;-71
2022/03/18 00:45:08;;;;;;;1.33;1.33;;;8.50;99.90;7.70;99871.00;;;;5115036;28;20248;-71
2022/03/18 00:53:05;;;;;;;1.70;1.60;;;8.40;99.90;7.90;99870.00;;;;5114609;28;20229;-71
2022/03/18 00:55:32;;;;;;;0.97;0.97;;;8.50;99.90;7.80;99875.00;;;;5114686;28;20198;-70
2022/03/18 00:57:59;;;;;;;1.20;1.20;;;8.50;99.90;7.70;99881.00;;;;5114936;28;20712;-70
2022/03/18 01:00:25;;;;;;;1.67;1.57;;;8.50;99.90;7.80;99878.00;;;;5114718;28;20225;-70
2022/03/18 01:02:54;;;;;;;1.23;1.23;;;8.40;99.90;7.80;99882.00;;;;5114904;28;20210;-71
2022/03/18 01:05:21;;;;;;;2.63;2.20;;;8.40;99.90;7.90;99883.00;;;;5114551;28;20214;-71
2022/03/18 01:07:50;;;;;;;1.87;1.77;;;8.50;99.90;7.80;99875.00;;;;5114557;28;20255;-71
2022/03/18 01:10:17;;;;;;;0.97;0.97;;;8.40;99.80;7.80;99866.00;;;;5113801;28;20612;-70
2022/03/18 01:12:46;;;;;;;3.03;2.83;;;8.40;99.60;7.80;99883.00;;;;5114670;28;20225;-70
2022/03/18 01:15:13;;;;;;;0.87;0.87;;;8.40;99.70;7.80;99881.00;;;;5096524;28;20201;-70
2022/03/18 01:17:39;;;;;;;2.67;2.53;;;8.40;99.90;7.80;99874.00;;;;5096887;28;20205;-70
2022/03/18 01:20:08;;;;;;;1.60;1.50;;;8.50;99.90;7.90;99879.00;;;;5114221;28;20220;-70
2022/03/18 01:22:34;;;;;;;2.17;2.07;;;8.50;99.80;7.90;99886.00;;;;5114404;28;20186;-72
2022/03/18 01:25:01;;;;;;;1.13;1.13;;;8.50;99.10;7.80;99878.00;;;;5114290;28;20226;-71
2022/03/18 01:27:31;;;;;;;1.33;1.30;;;8.50;98.80;7.80;99882.00;;;;5114233;28;20629;-72
2022/03/18 01:30:00;;;;;;;2.23;1.70;;;8.40;98.70;7.90;99876.00;;;;5096311;28;20214;-72
2022/03/18 01:32:27;;;;;;;2.23;2.07;;;8.50;98.30;7.80;99886.00;;;;5114259;28;20271;-71
2022/03/18 01:34:56;;;;;;;1.23;1.23;;;8.50;97.60;7.70;99885.00;;;;5114286;28;20202;-70
2022/03/18 01:37:22;;;;;;;3.83;2.17;;;8.40;98.30;7.80;99878.00;;;;5096581;28;20548;-70
2022/03/18 01:39:49;;;;;;;1.17;1.17;;;8.40;98.80;7.70;99887.00;;;;5114074;28;20252;-70
2022/03/18 01:42:15;;;;;;;2.07;1.97;;;8.40;99.30;7.70;99887.00;;;;5114264;28;20207;-70
2022/03/18 01:44:47;;;;;;;2.27;2.17;;;8.30;98.90;7.70;99886.00;;;;5114348;28;20252;-70
2022/03/18 01:47:14;;;;;;;1.20;1.20;;;8.30;98.80;7.80;99844.00;;;;5096994;28;20641;-70
2022/03/18 01:49:41;;;;;;;1.33;1.33;;;8.40;98.40;7.80;99886.00;;;;5115925;28;20197;-70
2022/03/18 01:52:10;;;;;;;1.67;1.57;;;8.40;98.20;7.70;99886.00;;;;5114473;28;20190;-71
2022/03/18 01:54:47;;;;;;;1.50;1.50;;;8.40;98.40;7.70;99885.00;;;;5114131;28;20209;-70
2022/03/18 01:57:17;;;;;;;3.57;3.00;;;8.30;98.80;7.60;99890.00;;;;5114643;28;20231;-70
2022/03/18 01:59:46;;;;;;;1.27;1.27;;;8.40;98.20;7.50;99876.00;;;;5114949;28;20233;-71
2022/03/18 02:02:12;;;;;;;2.13;2.00;;;8.30;98.20;7.60;99878.00;;;;5117806;28;20288;-70
2022/03/18 02:04:42;;;;;;;1.17;1.17;;;8.30;98.30;7.70;99888.00;;;;5096309;28;20221;-69
2022/03/18 02:07:09;;;;;;;1.67;1.63;;;8.30;98.40;7.60;99886.00;;;;5114056;28;20197;-70
2022/03/18 02:09:37;;;;;;;3.53;2.43;;;8.30;98.30;7.50;99891.00;;;;5114111;28;20202;-71
2022/03/18 02:12:08;;;;;;;2.43;1.77;;;8.30;98.40;7.50;99895.00;;;;5113773;28;20260;-70
2022/03/18 02:14:37;;;;;;;1.53;1.43;;;8.30;99.00;7.60;99892.00;;;;5113786;28;20205;-70
2022/03/18 02:17:07;;;;;;;0.90;0.90;;;8.30;99.30;7.70;99891.00;;;;5113760;28;20313;-70
2022/03/18 02:19:36;;;;;;;1.57;1.50;;;8.30;99.00;7.70;99899.00;;;;5113558;28;20222;-70
2022/03/18 02:22:10;;;;;;;2.00;1.83;;;8.30;98.30;7.60;99894.00;;;;5115719;28;20322;-70
2022/03/18 02:24:39;;;;;;;1.33;1.33;;;8.30;98.20;7.60;99899.00;;;;5117189;28;20250;-70
2022/03/18 02:27:06;;;;;;;1.80;1.70;;;8.30;98.50;7.50;99898.00;;;;5117101;28;20328;-70
2022/03/18 02:29:35;;;;;;;2.73;2.53;;;8.20;98.10;7.50;99906.00;;;;5117076;28;20525;-70
2022/03/18 02:32:04;;;;;;;2.33;2.23;;;8.20;98.50;7.50;99911.00;;;;5116941;28;20225;-70
2022/03/18 02:34:31;;;;;;;1.27;1.27;;;8.20;98.60;7.60;99907.00;;;;5117183;28;20212;-71
2022/03/18 02:36:58;;;;;;;2.17;1.50;;;8.30;98.80;7.60;99889.00;;;;5116945;28;20208;-70
2022/03/18 02:39:27;;;;;;;1.23;1.23;;;8.30;98.60;7.60;99912.00;;;;5117063;28;20312;-70
2022/03/18 02:41:55;;;;;;;2.27;1.93;;;8.30;98.40;7.70;99900.00;;;;5116820;28;20244;-70
2022/03/18 02:44:24;;;;;;;1.63;1.53;;;8.30;98.10;7.60;99902.00;;;;5098842;28;20218;-70
2022/03/18 02:46:51;;;;;;;1.37;1.27;;;8.30;97.40;7.60;99906.00;;;;5116718;28;20300;-70
2022/03/18 02:49:19;;;;;;;1.90;1.80;;;8.30;97.70;7.50;99912.00;;;;5116785;28;20202;-71
2022/03/18 02:51:46;;;;;;;0.87;0.87;;;8.20;97.90;7.50;99911.00;;;;5116945;28;20660;-72
2022/03/18 02:54:13;;;;;;;1.67;1.57;;;8.20;98.10;7.50;99910.00;;;;5116737;28;20599;-71
2022/03/18 02:56:40;;;;;;;1.70;1.60;;;8.20;98.30;7.40;99916.00;;;;5116644;28;20221;-71
2022/03/18 02:59:07;;;;;;;1.03;1.03;;;8.20;97.90;7.50;99921.00;;;;5116504;28;20218;-73
2022/03/18 03:01:34;;;;;;;2.00;1.70;;;8.20;98.10;7.50;99923.00;;;;5099003;28;20613;-73
2022/03/18 03:04:02;;;;;;;0.97;0.97;;;8.20;98.60;7.40;99921.00;;;;5098693;28;20221;-70
2022/03/18 03:09:16;;;;;;;1.80;1.70;;;8.20;98.00;7.50;99924.00;;;;5116622;28;20212;-70
2022/03/18 03:11:43;;;;;;;1.03;1.03;;;8.20;97.60;7.50;99925.00;;;;5116376;28;20243;-71
2022/03/18 03:14:11;;;;;;;1.87;1.73;;;8.20;97.60;7.60;99921.00;;;;5098506;28;20262;-73
2022/03/18 03:16:37;;;;;;;3.67;1.80;;;8.20;97.30;7.60;99935.00;;;;5116260;28;20253;-71
2022/03/18 03:19:04;;;;;;;1.33;1.33;;;8.30;97.20;7.50;99922.00;;;;5116220;28;20296;-71
2022/03/18 03:21:31;;;;;;;2.63;1.37;;;8.20;96.90;7.60;99934.00;;;;5116691;28;20243;-71
2022/03/18 03:23:58;;;;;;;0.90;0.90;;;8.20;96.90;7.60;99939.00;;;;5116158;28;20258;-71
2022/03/18 03:26:24;;;;;;;1.23;1.13;;;8.20;96.60;7.40;99947.00;;;;5115951;28;20236;-70
2022/03/18 03:28:53;;;;;;;0.97;0.97;;;8.20;96.70;7.50;99948.00;;;;5116088;28;20266;-71
2022/03/18 03:31:20;;;;;;;1.70;1.60;;;8.20;96.20;7.40;99949.00;;;;5115990;28;20202;-71
2022/03/18 03:33:47;;;;;;;2.43;2.33;;;8.10;96.20;7.40;99945.00;;;;5116077;28;20254;-71
2022/03/18 03:36:13;;;;;;;2.03;1.93;;;8.10;96.50;7.40;99960.00;;;;5116061;28;20267;-71
2022/03/18 03:38:40;;;;;;;2.03;1.93;;;8.10;96.70;7.40;99961.00;;;;5116071;28;20220;-71
2022/03/18 03:41:06;;;;;;;1.57;1.53;;;8.10;96.90;7.50;99952.00;;;;5115959;28;20653;-71
2022/03/18 03:43:33;;;;;;;1.33;1.30;;;8.10;96.40;7.50;99961.00;;;;5115779;28;20225;-71
2022/03/18 03:46:02;;;;;;;0.90;0.90;;;8.20;96.00;7.60;99951.00;;;;5115619;28;20233;-71
2022/03/18 03:48:29;;;;;;;1.77;1.67;;;8.20;95.80;7.40;99954.00;;;;5115781;28;20713;-71
2022/03/18 03:50:57;;;;;;;1.37;1.27;;;8.10;95.70;7.40;99957.00;;;;5097998;28;20323;-71
2022/03/18 03:53:26;;;;;;;1.20;1.20;;;8.10;96.30;7.40;99964.00;;;;5115855;28;20252;-71
2022/03/18 03:55:54;;;;;;;1.20;1.20;;;8.10;96.20;7.50;99971.00;;;;5115933;28;20284;-71
2022/03/18 03:58:20;;;;;;;0.97;0.93;;;8.10;96.90;7.50;99964.00;;;;5097577;28;20211;-71
2022/03/18 04:00:47;;;;;;;2.57;2.27;;;8.10;96.00;7.40;99968.00;;;;5115618;28;20205;-72
2022/03/18 04:03:16;;;;;;;1.07;1.07;;;8.10;95.90;7.40;99964.00;;;;5115765;28;20610;-71
2022/03/18 04:05:46;;;;;;;1.97;1.70;;;8.10;95.90;7.40;99968.00;;;;5115364;28;20237;-71
2022/03/18 04:08:12;;;;;;;0.80;0.80;;;8.10;95.80;7.30;99970.00;;;;5115525;28;20222;-73
2022/03/18 04:10:42;;;;;;;1.50;1.40;;;8.00;95.80;7.20;99967.00;;;;5115393;28;20224;-71
2022/03/18 04:13:10;;;;;;;1.83;1.73;;;8.00;96.30;7.40;99971.00;;;;5115388;28;20201;-71
2022/03/18 04:15:39;;;;;;;1.03;1.03;;;8.10;96.60;7.40;99972.00;;;;5115785;28;20206;-71
2022/03/18 04:18:05;;;;;;;1.47;1.37;;;8.10;96.10;7.40;99977.00;;;;5115294;28;20284;-71
2022/03/18 04:20:33;;;;;;;1.20;1.20;;;8.10;95.80;7.40;99987.00;;;;5115403;28;20221;-72
2022/03/18 04:23:00;;;;;;;1.00;1.00;;;8.10;95.80;7.20;99984.00;;;;5115242;28;20197;-71
2022/03/18 04:25:30;;;;;;;1.47;1.37;;;8.00;95.90;7.30;99989.00;;;;5115069;28;20294;-71
2022/03/18 04:27:57;;;;;;;1.13;1.13;;;7.90;95.90;7.30;100000.00;;;;5115128;28;20266;-71
2022/03/18 04:30:24;;;;;;;1.10;1.10;;;8.00;95.70;7.30;99992.00;;;;5115458;28;20193;-70
2022/03/18 04:32:51;;;;;;;1.77;1.70;;;8.00;95.40;7.40;100000.00;;;;5115053;28;20232;-71
2022/03/18 04:35:17;;;;;;;2.03;1.73;;;8.00;95.20;7.20;100002.00;;;;5115037;28;20235;-71
2022/03/18 04:37:44;;;;;;;1.90;1.80;;;8.00;95.00;7.40;100008.00;;;;5097125;28;20295;-71
2022/03/18 04:40:15;;;;;;;1.07;1.07;;;8.00;95.60;7.40;100012.00;;;;5114925;28;20220;-71
2022/03/18 04:42:44;;;;;;;1.70;1.10;;;8.00;95.30;7.30;100008.00;;;;5114885;28;20198;-71
2022/03/18 04:45:12;;;;;;;1.93;1.73;;;8.00;94.60;7.20;100008.00;;;;5113979;28;20233;-71
2022/03/18 04:47:38;;;;;;;1.20;1.20;;;8.00;95.00;7.30;100018.00;;;;5114873;28;20221;-71
2022/03/18 04:50:06;;;;;;;1.00;1.00;;;8.00;95.10;7.30;100011.00;;;;5114773;28;20285;-72
2022/03/18 04:52:35;;;;;;;3.30;2.67;;;8.00;94.90;7.30;100015.00;;;;5114738;28;20231;-71
2022/03/18 04:55:06;;;;;;;1.60;1.40;;;7.90;95.10;7.20;100025.00;;;;5114825;28;20200;-70
2022/03/18 04:57:36;;;;;;;1.50;1.47;;;7.90;95.00;7.00;100026.00;;;;5114837;28;20251;-71
2022/03/18 05:00:05;;;;;;;1.07;1.03;;;7.80;95.10;7.20;100019.00;;;;5114904;28;20215;-70
2022/03/18 05:02:31;;;;;;;1.27;1.27;;;7.90;95.60;7.20;100017.00;;;;5114698;28;20201;-71
2022/03/18 05:04:58;;;;;;;1.97;1.87;;;7.80;95.00;7.10;100018.00;;;;5114705;28;20260;-71
2022/03/18 05:07:27;;;;;;;1.43;1.30;;;7.90;95.20;7.20;100021.00;;;;5114540;28;20204;-71
2022/03/18 05:09:53;;;;;;;1.53;1.53;;;7.80;95.10;7.20;100043.00;;;;5114598;28;20220;-71
2022/03/18 05:12:19;;;;;;;1.67;1.57;;;7.90;95.40;7.20;100031.00;;;;5114469;28;20663;-71
2022/03/18 05:14:47;;;;;;;0.93;0.93;;;7.80;95.20;7.20;100039.00;;;;5114371;28;20197;-70
2022/03/18 05:17:14;;;;;;;2.07;1.97;;;7.80;95.50;7.10;100045.00;;;;5096383;28;20638;-71
2022/03/18 05:19:41;;;;;;;0.87;0.87;;;7.80;95.60;7.10;100046.00;;;;5115442;28;20213;-71
2022/03/18 05:22:09;;;;;;;1.40;1.30;;;7.80;95.80;7.20;100051.00;;;;5115114;28;20540;-71
2022/03/18 05:24:37;;;;;;;1.30;1.20;;;7.90;95.40;7.20;100052.00;;;;5114600;28;20263;-71
2022/03/18 05:27:04;;;;;;;2.10;2.00;;;7.90;95.70;7.20;100005.00;;;;5114649;28;20208;-72
2022/03/18 05:29:32;;;;;;;1.67;1.33;;;7.90;95.20;7.20;100055.00;;;;5114523;28;20188;-72
2022/03/18 05:31:59;;;;;;;1.40;1.33;;;7.80;95.50;7.00;100055.00;;;;5115069;28;20270;-71
2022/03/18 05:34:26;;;;;;;1.33;1.20;;;7.80;94.70;7.10;100063.00;;;;5101217;28;20222;-72
2022/03/18 05:36:55;;;;;;;1.37;1.37;;;7.80;95.20;7.10;100065.00;;;;5096675;28;20221;-71
2022/03/18 05:39:22;;;;;;;0.93;0.93;;;7.80;95.40;7.10;100040.00;;;;5114371;28;20290;-71
2022/03/18 05:41:49;;;;;;;1.40;1.17;;;7.70;95.60;7.00;100059.00;;;;5114128;28;20258;-71
2022/03/18 05:44:15;;;;;;;1.50;1.43;;;7.70;95.10;7.10;100061.00;;;;5114090;28;20347;-71
2022/03/18 05:46:44;;;;;;;1.10;1.10;;;7.70;95.60;7.00;100036.00;;;;5114080;28;20661;-71
2022/03/18 05:49:14;;;;;;;2.07;1.80;;;7.80;95.70;7.00;100060.00;;;;5114022;28;20192;-71
2022/03/18 05:51:41;;;;;;;3.43;1.73;;;7.80;95.50;7.00;100064.00;;;;5113897;28;20218;-70
2022/03/18 05:54:08;;;;;;;0.97;0.97;;;7.70;95.70;7.10;100078.00;;;;5113874;28;20205;-70
2022/03/18 05:56:53;;;;;;;1.23;1.23;;;7.80;95.50;7.20;100080.00;;;;5116928;28;20237;-70
2022/03/18 05:59:21;;;;;;;0.97;0.97;;;7.80;95.70;7.20;100085.00;;;;5117460;28;20248;-71
2022/03/18 06:01:48;;;;;;;1.23;1.20;;;7.90;95.80;7.20;100079.00;;;;5117478;28;20658;-71
2022/03/18 06:04:15;;;;;;;2.30;1.90;;;7.90;95.70;7.10;100087.00;;;;5117249;28;20194;-70
2022/03/18 06:06:43;;;;;;;2.17;1.83;;;7.90;95.40;7.10;100093.00;;;;5117439;28;20197;-70
2022/03/18 06:11:56;;;;;;;1.23;1.23;;;7.90;95.20;7.20;100074.00;;;;5117250;28;20239;-71
2022/03/18 06:14:25;;;;;;;3.90;1.77;;;7.80;95.60;7.10;100075.00;;;;5117177;28;20198;-70
2022/03/18 06:16:56;;;;;;;1.27;1.27;;;7.80;95.60;7.20;100088.00;;;;5117259;28;20229;-70
2022/03/18 06:19:24;;;;;;;0.90;0.90;;;7.90;95.50;7.20;100093.00;;;;5117405;28;20308;-70
2022/03/18 06:21:51;;;;;;;1.80;1.70;;;7.90;95.40;7.20;100095.00;;;;5117464;28;20280;-71
2022/03/18 06:24:20;;;;;;;2.37;1.63;;;7.90;95.30;7.30;100104.00;;;;5116972;28;20354;-70
2022/03/18 06:26:50;;;;;;;2.97;2.77;;;7.90;95.30;7.30;100086.00;;;;5117305;28;20195;-70
2022/03/18 06:29:20;;;;;;;0.70;0.70;;;8.00;95.20;7.50;100106.00;;;;5117141;28;20237;-71
2022/03/18 06:31:47;;;;;;;2.17;2.07;;;8.00;95.10;7.40;100115.00;;;;5117029;28;20679;-70
2022/03/18 06:34:16;;;;;;;1.57;1.50;;;8.00;94.00;7.30;100083.00;;;;5117072;28;20201;-70
2022/03/18 06:36:44;;;;;;;1.23;1.13;;;8.00;95.00;7.30;100112.00;;;;5116940;28;20587;-70
2022/03/18 06:39:10;;;;;;;1.90;1.57;;;8.00;94.60;7.30;100092.00;;;;5116802;28;20317;-70
2022/03/18 06:41:37;;;;;;;1.23;1.23;;;7.90;95.10;7.50;100114.00;;;;5116825;28;20221;-70
2022/03/18 06:44:05;;;;;;;1.10;1.10;;;8.00;95.20;7.40;100110.00;;;;5116838;28;20529;-71
2022/03/18 06:46:32;;;;;;;1.43;1.43;;;8.00;94.50;7.40;100114.00;;;;5117119;28;20224;-70
2022/03/18 06:48:58;;;;;;;1.73;1.63;;;8.10;94.80;7.50;100130.00;;;;5116854;28;20280;-70
2022/03/18 06:51:27;;;;;;;1.70;1.60;;;8.10;94.60;7.50;100123.00;;;;5116861;28;20283;-70
2022/03/18 06:53:55;;;;;;;3.27;2.97;;;8.10;94.70;7.40;100126.00;;;;5116781;28;20198;-71
2022/03/18 06:56:22;;;;;;;1.40;1.40;;;8.10;94.40;7.50;100128.00;;;;5116635;28;20236;-71
2022/03/18 06:58:48;;;;;;;2.93;2.73;;;8.10;94.60;7.60;100125.00;;;;5116424;28;20229;-71
2022/03/18 07:01:15;;;;;;;1.17;1.17;;;8.20;94.80;7.60;100129.00;;;;5116470;28;20219;-71
2022/03/18 07:03:44;;;;;;;1.80;1.43;;;8.30;94.40;7.70;100129.00;;;;5116456;28;20515;-71
2022/03/18 07:06:11;;;;;;;2.27;2.10;;;8.30;94.10;7.70;100135.00;;;;5116023;28;20268;-71
2022/03/18 07:08:37;;;;;;;1.67;1.57;;;8.30;94.70;7.70;100143.00;;;;5116071;28;20218;-72
2022/03/18 07:11:05;;;;;;;1.20;1.20;;;8.30;93.90;7.70;100142.00;;;;5116434;28;20244;-72
2022/03/18 07:13:32;;;;;;;2.07;1.97;;;8.40;93.50;7.80;100145.00;;;;5116492;28;20264;-70
2022/03/18 07:17:54;;;;;;;2.10;2.00;;;8.40;93.70;7.80;100147.00;;;;5116346;28;20189;-71
2022/03/18 07:18:46;;;;;;;1.40;1.40;;;8.40;93.70;7.90;100115.00;;;;5116176;28;20316;-70
2022/03/18 07:21:12;;;;;;;1.60;1.50;;;8.60;92.50;7.90;100163.00;;;;5116193;28;20213;-70
2022/03/18 07:23:39;;;;;;;1.03;1.03;;;8.60;92.20;7.90;100159.00;;;;5116214;28;20194;-71
2022/03/18 07:26:06;;;;;;;2.00;1.90;;;8.50;92.10;8.00;100147.00;;;;5098051;28;20647;-70
2022/03/18 07:28:37;;;;;;;2.17;2.07;;;8.60;92.70;8.00;100146.00;;;;5116110;28;20197;-70
2022/03/18 07:31:03;;;;;;;1.43;1.43;;;8.60;91.80;8.10;100146.00;;;;5115968;28;20259;-71
2022/03/18 07:33:30;;;;;;;1.70;1.63;;;8.60;91.60;8.00;100124.00;;;;5116393;28;20578;-71
2022/03/18 07:35:57;;;;;;;1.57;1.47;;;8.60;91.50;8.00;100143.00;;;;5116360;28;20198;-70
2022/03/18 07:38:23;;;;;;;2.13;1.93;;;8.60;92.30;8.10;100151.00;;;;5098294;28;20677;-70
2022/03/18 07:40:50;;;;;;;1.50;1.40;;;8.70;92.40;8.10;100151.00;;;;5116071;28;20325;-70
2022/03/18 07:43:19;;;;;;;7.80;2.23;;;8.70;92.10;8.20;100131.00;;;;5115804;28;20216;-71
2022/03/18 07:45:46;;;;;;;1.87;1.77;;;8.70;91.90;8.20;100155.00;;;;5115856;28;20304;-71
2022/03/18 07:48:12;;;;;;;1.37;1.33;;;8.90;91.40;8.30;100163.00;;;;5115775;28;20762;-71
2022/03/18 07:50:41;;;;;;;4.00;1.87;;;8.90;91.20;8.20;100166.00;;;;5115674;28;20225;-72
2022/03/18 07:53:09;;;;;;;2.73;1.73;;;8.80;91.60;8.30;100166.00;;;;5115963;28;20262;-71
2022/03/18 07:55:38;;;;;;;2.20;2.10;;;8.90;91.80;8.50;100174.00;;;;5115671;28;20198;-71
2022/03/18 07:58:06;;;;;;;1.07;1.07;;;9.00;91.10;8.50;100184.00;;;;5115841;28;20190;-70
2022/03/18 08:00:34;;;;;;;1.40;1.40;;;9.00;91.10;8.40;100170.00;;;;5115707;28;20218;-72
2022/03/18 08:03:00;;;;;;;3.90;2.10;;;9.10;90.90;8.50;100176.00;;;;5115576;28;20245;-70
2022/03/18 08:05:29;;;;;;;2.23;2.13;;;9.10;91.20;8.50;100184.00;;;;5115455;28;20224;-70
2022/03/18 08:07:56;;;;;;;1.97;1.87;;;9.20;91.00;8.60;100183.00;;;;5115416;28;20197;-71
2022/03/18 08:10:22;;;;;;;1.63;1.53;;;9.20;90.50;8.60;100184.00;;;;5115442;28;20501;-70
2022/03/18 08:12:52;;;;;;;1.70;1.60;;;9.20;89.90;8.50;100196.00;;;;5115475;28;20194;-71
2022/03/18 08:15:21;;;;;;;2.00;1.90;;;9.20;89.90;8.70;100193.00;;;;5115322;28;20224;-71
2022/03/18 08:17:52;;;;;;;5.73;2.83;;;9.30;89.60;8.70;100196.00;;;;5115296;28;20204;-71
2022/03/18 08:20:20;;;;;;;1.70;1.60;;;9.20;89.70;8.70;100196.00;;;;5115399;28;20224;-70
2022/03/18 08:22:47;;;;;;;1.80;1.70;;;9.30;89.70;8.70;100192.00;;;;5115261;28;20290;-70
2022/03/18 08:25:14;;;;;;;1.57;1.47;;;9.30;89.20;8.70;100191.00;;;;5115166;28;20236;-70
2022/03/18 08:27:41;;;;;;;2.13;1.83;;;9.30;88.60;8.50;100191.00;;;;5115335;28;20258;-71
2022/03/18 08:30:11;;;;;;;2.33;2.23;;;9.30;88.50;8.70;100197.00;;;;5115323;28;20198;-71
2022/03/18 08:32:38;;;;;;;1.97;1.87;;;9.30;89.10;8.80;100198.00;;;;5097151;28;20611;-71
2022/03/18 08:35:09;;;;;;;2.17;2.07;;;9.30;89.70;9.00;100201.00;;;;5115337;28;20221;-71
2022/03/18 08:40:25;;;;;;;1.60;1.50;;;9.50;87.70;8.90;100185.00;;;;5115277;28;20217;-72
2022/03/18 08:42:53;;;;;;;3.00;2.40;;;9.50;88.40;9.00;100198.00;;;;5115056;28;20532;-71
2022/03/18 08:45:20;;;;;;;3.23;2.90;;;9.60;88.80;9.20;100193.00;;;;5097012;28;20571;-70
2022/03/18 08:47:47;;;;;;;1.80;1.70;;;9.70;88.00;9.30;100205.00;;;;5115066;28;20545;-70
2022/03/18 08:50:16;;;;;;;3.87;3.27;;;9.80;87.60;9.50;100204.00;;;;5115821;28;20850;-70
2022/03/18 08:52:45;;;;;;;1.20;1.20;;;10.00;86.80;9.60;100211.00;;;;5115557;28;20705;-70
2022/03/18 08:55:14;;;;;;;2.37;2.20;;;10.10;86.50;9.90;100206.00;;;;5115226;28;20267;-71
2022/03/18 08:57:40;;;;;;;2.00;1.90;;;10.30;85.50;10.00;100211.00;;;;5114894;28;20194;-71
2022/03/18 09:00:11;;;;;;;3.73;2.93;;;10.40;84.80;10.00;100167.00;;;;5116037;28;20216;-70
2022/03/18 09:02:39;;;;;;;3.23;2.77;;;10.50;83.20;10.10;100216.00;;;;5117838;28;20220;-70
2022/03/18 09:05:08;;;;;;;2.93;2.73;;;10.60;83.50;10.00;100226.00;;;;5116270;28;20213;-72
2022/03/18 09:07:37;;;;;;;1.93;1.83;;;10.60;83.30;10.20;100227.00;;;;5114884;28;20233;-71
2022/03/18 09:10:05;;;;;;;2.80;1.43;;;10.60;82.80;10.10;100228.00;;;;5114748;28;20198;-71
2022/03/18 09:12:32;;;;;;;3.23;2.97;;;10.60;82.90;10.30;100231.00;;;;5114663;28;20648;-70
2022/03/18 09:14:59;;;;;;;2.63;2.43;;;10.70;83.20;10.40;100225.00;;;;5114612;28;20196;-70
2022/03/18 09:17:26;;;;;;;5.50;3.07;;;10.90;81.80;10.40;100237.00;;;;5096463;28;20245;-70
2022/03/18 09:19:52;;;;;;;5.77;2.37;;;10.90;81.00;10.60;100227.00;;;;5114250;28;20255;-71
2022/03/18 09:22:19;;;;;;;2.40;2.30;;;11.00;80.20;10.60;100241.00;;;;5114485;28;20206;-71
2022/03/18 09:24:46;;;;;;;2.43;2.30;;;11.10;79.80;10.90;100230.00;;;;5114218;28;20232;-71
2022/03/18 09:27:16;;;;;;;1.80;1.63;;;11.30;79.20;10.90;100252.00;;;;5096493;28;20563;-71
2022/03/18 09:29:44;;;;;;;1.93;1.83;;;11.40;78.40;11.00;100245.00;;;;5113697;28;20258;-72
2022/03/18 09:32:10;;;;;;;2.60;2.50;;;11.40;75.50;11.10;100247.00;;;;5114361;28;20205;-71
2022/03/18 09:34:37;;;;;;;3.40;2.57;;;11.50;72.90;11.10;100246.00;;;;5114201;28;20206;-71
2022/03/18 09:37:06;;;;;;;4.27;3.13;;;11.60;69.70;11.00;100253.00;;;;5114575;28;20209;-71
2022/03/18 09:39:33;;;;;;;2.50;2.30;;;11.60;69.50;11.10;100252.00;;;;5096195;28;20198;-72
2022/03/18 09:42:00;;;;;;;3.23;1.73;;;11.60;68.50;11.10;100255.00;;;;5114144;28;20209;-71
2022/03/18 09:44:34;;;;;;;1.50;1.50;;;11.60;66.50;11.00;100253.00;;;;5114162;28;20198;-71
2022/03/18 09:47:01;;;;;;;3.10;2.10;;;11.50;66.60;11.00;100253.00;;;;5114170;28;20221;-71
2022/03/18 09:49:29;;;;;;;3.50;3.20;;;11.60;67.80;11.30;100259.00;;;;5114082;28;20198;-71
2022/03/18 09:51:56;;;;;;;3.70;1.93;;;11.70;66.40;11.20;100255.00;;;;5114025;28;20206;-71
2022/03/18 09:54:23;;;;;;;3.40;3.20;;;11.70;65.10;11.20;100255.00;;;;5113884;28;20211;-72
2022/03/18 09:56:50;;;;;;;3.10;2.90;;;11.70;62.90;11.30;100255.00;;;;5113844;28;20221;-71
2022/03/18 09:59:21;;;;;;;4.90;3.37;;;11.80;62.50;11.30;100237.00;;;;5113621;28;20229;-70
2022/03/18 10:01:48;;;;;;;5.67;1.47;;;11.80;61.40;11.50;100250.00;;;;5114118;28;20645;-70
2022/03/18 10:04:15;;;;;;;1.73;1.63;;;11.90;59.80;11.40;100263.00;;;;5114059;28;20306;-70
2022/03/18 10:06:43;;;;;;;2.23;2.07;;;12.00;60.60;11.60;100250.00;;;;5113680;28;20251;-70
2022/03/18 10:09:12;;;;;;;4.53;3.40;;;12.00;61.00;11.50;100267.00;;;;5113778;28;20228;-71
2022/03/18 10:11:43;;;;;;;1.63;1.50;;;12.00;59.30;11.60;100265.00;;;;5113661;28;20190;-71
2022/03/18 10:14:15;;;;;;;4.37;3.50;;;12.10;59.10;11.60;100257.00;;;;5095711;28;20244;-71
2022/03/18 10:16:44;;;;;;;2.10;2.00;;;12.20;57.00;11.60;100254.00;;;;5113683;28;20706;-71
2022/03/18 10:19:13;;;;;;;2.70;2.60;;;12.20;58.00;11.70;100264.00;;;;5113532;28;20244;-72
2022/03/18 10:21:55;;;;;;;4.10;3.70;;;12.20;57.40;11.70;100267.00;;;;5113779;28;20580;-71
2022/03/18 10:24:27;;;;;;;3.33;2.90;;;12.20;58.00;11.80;100269.00;;;;5113484;28;20225;-71
2022/03/18 10:27:12;;;;;;;3.33;3.03;;;12.20;58.80;11.90;100252.00;;;;5113496;28;20218;-71
2022/03/18 10:29:42;;;;;;;3.20;3.00;;;12.30;57.10;12.00;100261.00;;;;5113555;28;20258;-71
2022/03/18 10:32:11;;;;;;;4.83;3.43;;;12.40;56.00;12.00;100262.00;;;;5113453;28;20661;-71
2022/03/18 10:37:25;;;;;;;3.20;2.90;;;12.50;56.40;12.10;100273.00;;;;5113377;28;20221;-72
2022/03/18 10:40:00;;;;;;;3.50;2.23;;;12.60;55.70;12.00;100250.00;;;;5113430;28;20198;-71
2022/03/18 10:42:27;;;;;;;3.47;3.10;;;12.50;55.20;12.10;100267.00;;;;5114561;28;20181;-71
2022/03/18 10:44:57;;;;;;;3.20;2.87;;;12.60;55.40;12.30;100258.00;;;;5116762;28;20198;-72
2022/03/18 10:47:27;;;;;;;5.30;2.23;;;12.70;54.40;12.20;100262.00;;;;5116994;28;20198;-71
2022/03/18 10:50:23;;;;;;;3.20;3.00;;;12.60;54.20;12.10;100256.00;;;;5116858;28;20226;-69
2022/03/18 10:53:07;;;;;;;3.33;2.50;;;12.60;54.30;12.10;100266.00;;;;5098945;28;20565;-69
2022/03/18 10:55:36;;;;;;;2.77;2.57;;;12.60;54.50;12.30;100265.00;;;;5099001;28;20194;-72
2022/03/18 10:58:10;;;;;;;3.67;3.23;;;12.60;55.00;12.30;100264.00;;;;5116722;28;20235;-70
2022/03/18 11:00:39;;;;;;;3.27;3.07;;;12.70;54.70;12.40;100262.00;;;;5116889;28;20294;-71
2022/03/18 11:03:08;;;;;;;4.43;4.00;;;12.80;53.70;12.40;100267.00;;;;5116548;28;20283;-70
2022/03/18 11:05:39;;;;;;;4.40;3.47;;;12.80;53.40;12.40;100267.00;;;;5116478;28;20522;-71
2022/03/18 11:08:10;;;;;;;7.17;3.13;;;12.90;54.00;12.60;100274.00;;;;5116548;28;20202;-71
2022/03/18 11:13:29;;;;;;;4.07;2.80;;;12.90;49.60;12.50;100276.00;;;;5116623;28;20186;-72
2022/03/18 11:15:57;;;;;;;2.53;2.43;;;13.00;49.70;12.50;100269.00;;;;5116255;28;20225;-71
2022/03/18 11:18:28;;;;;;;2.40;2.30;;;13.00;50.30;12.70;100260.00;;;;5116316;28;20646;-71
2022/03/18 11:20:57;;;;;;;3.57;3.07;;;13.10;51.00;12.80;100243.00;;;;5116471;28;20186;-71
2022/03/18 11:23:27;;;;;;;2.73;2.53;;;13.30;50.70;13.20;100266.00;;;;5116613;28;20193;-71
2022/03/18 11:25:57;;;;;;;2.67;2.50;;;13.50;50.10;13.20;100268.00;;;;5116222;28;20250;-71